Time;durP1;ratioP1;P1;durP2;ratioP2;P2;SDS_P1;SDS_P2;PMS_P1;PMS_P2;Temp;Humidity;BMP_temperature;BMP_pressure;BME280_temperature;BME280_humidity;BME280_pressure;Samples;Min_cycle;Max_cycle;Signal;HPM_P1;HPM_P2
2022/04/09 09:04:01;;;;;;;8.67;1.43;;;;;;;17.13;nan;101783.00;5063203;28;20453;-89
2022/04/09 09:06:45;;;;;;;8.77;1.27;;;;;;;17.14;nan;101777.28;4961737;28;20496;-88
2022/04/09 09:09:41;;;;;;;5.60;1.37;;;;;;;17.18;nan;101783.22;4937454;28;20454;-88
2022/04/09 10:50:23;;;;;;;9.73;1.70;;;;;;;20.37;nan;101782.88;5073773;28;20809;-91
2022/04/09 10:53:00;;;;;;;16.07;1.80;;;;;;;20.48;nan;101784.00;5024095;28;20446;-94
2022/04/09 10:55:31;;;;;;;12.97;1.87;;;;;;;20.58;nan;101779.59;5023296;28;20857;-89
2022/04/09 10:58:04;;;;;;;7.07;1.67;;;;;;;20.79;nan;101771.78;5024022;28;20876;-90
2022/04/09 11:00:34;;;;;;;10.80;1.20;;;;;;;21.15;nan;101774.47;5039828;28;20532;-89
2022/04/09 11:03:28;;;;;;;5.73;1.50;;;;;;;21.38;nan;101777.28;5039295;28;20503;-89
2022/04/09 11:06:34;;;;;;;11.97;1.30;;;;;;;21.47;nan;101776.94;5045660;28;20506;-89
2022/04/09 11:09:03;;;;;;;9.40;1.37;;;;;;;21.76;nan;101773.19;5055626;28;20445;-88
2022/04/09 11:11:31;;;;;;;6.73;1.30;;;;;;;21.94;nan;101773.03;5022736;28;20446;-89
2022/04/09 11:14:01;;;;;;;5.33;1.10;;;;;;;22.02;nan;101780.22;5023048;28;20449;-90
2022/04/09 11:16:59;;;;;;;12.43;1.53;;;;;;;22.31;nan;101768.06;5056078;28;20444;-89
2022/04/09 11:19:26;;;;;;;4.47;1.00;;;;;;;22.47;nan;101771.16;5052237;28;20445;-89
2022/04/09 11:21:54;;;;;;;11.63;1.53;;;;;;;22.41;nan;101772.97;5055081;28;20460;-89
2022/04/09 11:24:22;;;;;;;6.90;1.30;;;;;;;22.61;nan;101762.22;4973039;28;20960;-89
2022/04/09 12:33:29;;;;;;;8.87;1.37;;;;;;;24.13;nan;101676.50;5622487;23;20485;-88
2022/04/09 12:36:09;;;;;;;6.27;1.50;;;;;;;23.96;nan;101671.00;4959768;28;20490;-86
2022/04/09 12:38:42;;;;;;;5.47;1.40;;;;;;;24.17;nan;101670.13;4944636;28;20453;-85
2022/04/09 12:41:10;;;;;;;8.20;1.70;;;;;;;24.44;nan;101659.81;4946024;28;20504;-88
2022/04/09 12:43:41;;;;;;;6.73;1.23;;;;;;;24.53;nan;101659.34;4944289;28;20516;-91
2022/04/09 12:46:13;;;;;;;8.03;2.10;;;;;;;24.39;nan;101662.59;4944359;28;20438;-84
2022/04/09 12:48:47;;;;;;;6.50;1.97;;;;;;;24.52;nan;101661.31;4943679;28;20476;-84
2022/04/09 12:51:18;;;;;;;9.50;2.03;;;;;;;24.78;nan;101649.25;4959409;28;20457;-84
2022/04/09 12:53:55;;;;;;;4.30;1.30;;;;;;;24.89;nan;101646.53;4959314;28;20835;-84
2022/04/09 12:56:25;;;;;;;8.73;1.50;;;;;;;24.94;nan;101641.00;4960280;28;21022;-85
2022/04/09 12:58:53;;;;;;;4.20;1.10;;;;;;;25.08;nan;101628.25;4943469;28;20458;-84
2022/04/09 13:01:22;;;;;;;8.47;1.30;;;;;;;25.30;nan;101634.56;4959543;28;20521;-84
2022/04/09 13:03:52;;;;;;;8.40;1.83;;;;;;;25.56;nan;101627.16;4943312;28;20454;-86
2022/04/09 13:06:21;;;;;;;4.50;0.97;;;;;;;25.71;nan;101632.03;4968637;28;20461;-86
2022/04/09 13:08:49;;;;;;;3.67;1.00;;;;;;;25.77;nan;101619.72;4959407;28;20449;-87
2022/04/09 13:11:19;;;;;;;9.30;1.30;;;;;;;25.90;nan;101618.38;4943462;28;20453;-87
2022/04/09 13:13:47;;;;;;;5.60;1.30;;;;;;;25.96;nan;101617.28;4959497;28;20442;-86
2022/04/09 13:16:15;;;;;;;4.63;1.07;;;;;;;26.04;nan;101609.16;4943387;28;20493;-87
2022/04/09 13:18:46;;;;;;;5.00;1.40;;;;;;;26.23;nan;101608.63;4943835;28;20454;-86
2022/04/09 13:21:16;;;;;;;5.87;1.23;;;;;;;26.43;nan;101614.31;4961756;28;20480;-87
2022/04/09 13:23:44;;;;;;;4.27;1.03;;;;;;;26.39;nan;101613.19;4952472;28;20818;-88
2022/04/09 13:26:12;;;;;;;4.20;0.80;;;;;;;26.40;nan;101614.88;4924030;29;20450;-88
2022/04/09 13:28:40;;;;;;;11.67;1.80;;;;;;;26.49;nan;101613.22;4908833;29;20466;-85
2022/04/09 13:38:36;;;;;;;9.60;1.43;;;;;;;26.48;nan;101614.31;4937272;29;20448;-86
2022/04/09 13:41:04;;;;;;;10.40;1.50;;;;;;;26.37;nan;101590.19;4905232;29;20947;-86
2022/04/09 13:43:33;;;;;;;8.53;1.27;;;;;;;26.43;nan;101603.94;4905114;29;20514;-86
2022/04/09 13:46:02;;;;;;;11.10;1.57;;;;;;;26.41;nan;101611.78;4906725;29;20464;-85
2022/04/09 13:48:30;;;;;;;12.67;1.60;;;;;;;26.50;nan;101609.28;4920243;29;20448;-86
2022/04/09 13:50:58;;;;;;;10.17;1.37;;;;;;;26.58;nan;101611.50;4904736;29;20459;-86
2022/04/09 13:53:26;;;;;;;25.57;2.13;;;;;;;26.63;nan;101608.72;4935970;29;20456;-85
2022/04/09 13:55:53;;;;;;;22.03;2.63;;;;;;;26.69;nan;101604.81;4920323;29;20555;-86
2022/04/09 13:58:21;;;;;;;11.90;1.57;;;;;;;26.71;nan;101605.38;4904586;29;20774;-85
2022/04/09 14:00:50;;;;;;;11.77;1.93;;;;;;;26.84;nan;101616.00;4919826;29;20447;-86
2022/04/09 14:03:19;;;;;;;16.97;3.00;;;;;;;26.89;nan;101611.53;4920107;29;20451;-86
2022/04/09 14:05:46;;;;;;;7.83;1.10;;;;;;;26.94;nan;101603.13;4919722;29;20464;-85
2022/04/09 14:08:15;;;;;;;8.80;1.03;;;;;;;27.05;nan;101599.19;4920237;29;20873;-86
2022/04/09 14:10:46;;;;;;;13.53;1.10;;;;;;;27.08;nan;101598.63;4905272;29;20954;-86
2022/04/09 14:13:15;;;;;;;7.93;0.70;;;;;;;26.61;nan;101594.13;4904639;29;20452;-86
2022/04/09 14:15:43;;;;;;;6.10;1.13;;;;;;;26.00;nan;101598.78;4919967;29;20499;-86
2022/04/09 14:18:13;;;;;;;8.70;0.90;;;;;;;25.44;nan;101601.31;4935333;29;20454;-86
2022/04/09 14:20:42;;;;;;;9.60;1.57;;;;;;;24.93;nan;101601.00;4919884;29;20456;-85
2022/04/09 14:23:10;;;;;;;8.53;1.30;;;;;;;24.44;nan;101603.91;4919904;29;20807;-85
2022/04/09 14:25:39;;;;;;;4.63;1.13;;;;;;;23.96;nan;101596.44;4935414;29;20519;-85
2022/04/09 14:28:11;;;;;;;6.23;1.30;;;;;;;23.70;nan;101591.63;4919375;29;20467;-85
2022/04/09 14:30:42;;;;;;;6.50;1.70;;;;;;;23.47;nan;101587.16;4919812;29;20456;-85
2022/04/09 14:33:10;;;;;;;5.97;1.30;;;;;;;23.24;nan;101588.22;4919602;29;20854;-85
2022/04/09 14:35:39;;;;;;;8.60;1.97;;;;;;;23.08;nan;101594.69;4934621;29;20500;-85
2022/04/09 14:38:07;;;;;;;6.43;1.27;;;;;;;23.04;nan;101590.72;4937069;29;20482;-86
2022/04/09 14:40:36;;;;;;;7.60;1.73;;;;;;;23.02;nan;101578.97;4938399;29;20464;-85
2022/04/09 14:43:04;;;;;;;8.27;1.33;;;;;;;23.25;nan;101583.50;4922984;29;20529;-86
2022/04/09 14:45:32;;;;;;;6.03;1.37;;;;;;;23.39;nan;101579.22;4922780;28;20828;-86
2022/04/09 14:48:00;;;;;;;6.83;1.53;;;;;;;23.40;nan;101581.75;4938375;28;20454;-85
2022/04/09 14:50:28;;;;;;;9.57;1.67;;;;;;;23.05;nan;101564.53;4938295;28;20447;-85
2022/04/09 14:52:56;;;;;;;13.60;2.20;;;;;;;23.03;nan;101586.25;4938336;29;20938;-86
2022/04/09 14:55:25;;;;;;;7.50;1.53;;;;;;;23.11;nan;101573.78;4938242;29;20479;-86
2022/04/09 14:57:53;;;;;;;5.67;1.63;;;;;;;23.23;nan;101592.13;4954015;29;20881;-86
2022/04/09 15:00:21;;;;;;;8.33;1.50;;;;;;;22.88;nan;101588.81;4930650;29;20899;-85
2022/04/09 15:02:49;;;;;;;3.67;1.33;;;;;;;22.51;nan;101582.88;4922585;28;20466;-86
2022/04/09 15:05:17;;;;;;;8.33;1.33;;;;;;;22.34;nan;101577.25;4922954;28;20450;-86
2022/04/09 15:07:46;;;;;;;6.90;1.73;;;;;;;22.46;nan;101578.06;4922714;29;20462;-86
2022/04/09 15:10:14;;;;;;;9.93;1.50;;;;;;;22.71;nan;101575.66;4922422;29;20804;-85
2022/04/09 15:12:42;;;;;;;8.83;1.00;;;;;;;23.01;nan;101554.97;4953966;28;20813;-85
2022/04/09 15:15:11;;;;;;;13.47;2.10;;;;;;;23.19;nan;101549.09;4937938;29;20483;-86
2022/04/09 15:17:39;;;;;;;5.40;1.60;;;;;;;23.17;nan;101542.94;4922328;28;20463;-85
2022/04/09 15:20:07;;;;;;;8.83;1.50;;;;;;;23.24;nan;101538.00;4938038;29;20517;-86
2022/04/09 15:22:35;;;;;;;10.20;1.50;;;;;;;23.17;nan;101542.94;4937947;29;20513;-85
2022/04/09 15:25:03;;;;;;;9.17;1.27;;;;;;;23.32;nan;101545.06;4922373;29;20823;-86
2022/04/09 15:27:32;;;;;;;5.70;1.40;;;;;;;23.51;nan;101542.78;4953402;28;20462;-86
2022/04/09 15:30:01;;;;;;;6.63;1.17;;;;;;;23.59;nan;101522.84;4937553;28;20459;-86
2022/04/09 15:32:30;;;;;;;8.40;1.57;;;;;;;23.74;nan;101543.41;4922281;29;20447;-85
2022/04/09 15:34:58;;;;;;;5.10;1.50;;;;;;;23.52;nan;101550.09;4937818;29;20443;-85
2022/04/09 15:37:26;;;;;;;10.83;1.50;;;;;;;23.24;nan;101548.34;4922064;29;20474;-86
2022/04/09 15:39:56;;;;;;;6.87;1.40;;;;;;;22.89;nan;101546.72;4925267;28;20454;-85
2022/04/09 15:42:25;;;;;;;10.37;1.63;;;;;;;22.75;nan;101551.75;4973091;28;20452;-86
2022/04/09 15:44:53;;;;;;;8.43;1.53;;;;;;;22.63;nan;101552.97;4956461;28;20512;-86
2022/04/09 15:47:21;;;;;;;17.10;1.37;;;;;;;22.37;nan;101532.19;4957485;28;20445;-86
2022/04/09 15:49:48;;;;;;;10.93;1.30;;;;;;;22.28;nan;101539.28;4960425;28;20477;-86
2022/04/09 15:52:16;;;;;;;10.40;2.30;;;;;;;22.40;nan;101535.31;4960718;28;20457;-86
2022/04/09 15:54:44;;;;;;;6.37;1.10;;;;;;;22.57;nan;101532.53;4945194;28;20449;-85
2022/04/09 15:57:14;;;;;;;7.37;1.30;;;;;;;22.57;nan;101532.53;4960545;28;20490;-85
2022/04/09 15:59:44;;;;;;;11.43;1.90;;;;;;;22.55;nan;101525.50;4955726;28;20528;-91
2022/04/09 16:02:13;;;;;;;9.20;1.43;;;;;;;22.62;nan;101535.41;4944216;28;20462;-86
2022/04/09 16:04:41;;;;;;;4.73;1.00;;;;;;;22.64;nan;101527.63;4960479;28;20454;-86
2022/04/09 16:07:10;;;;;;;3.87;1.00;;;;;;;22.79;nan;101515.06;4944917;28;20450;-85
2022/04/09 16:09:39;;;;;;;6.00;1.17;;;;;;;22.94;nan;101518.06;4976962;28;20458;-85
2022/04/09 16:12:09;;;;;;;8.23;1.40;;;;;;;23.04;nan;101515.44;4977400;28;20446;-85
2022/04/09 16:14:37;;;;;;;5.00;1.17;;;;;;;22.96;nan;101507.50;4936509;28;20477;-85
2022/04/09 16:17:04;;;;;;;5.00;0.90;;;;;;;22.89;nan;101512.44;4937932;29;20523;-85
2022/04/09 16:19:33;;;;;;;8.30;1.43;;;;;;;22.74;nan;101511.06;4960666;28;20961;-86
2022/04/09 16:22:02;;;;;;;4.80;1.10;;;;;;;22.54;nan;101515.47;4944120;28;20459;-85
2022/04/09 16:24:30;;;;;;;13.53;1.53;;;;;;;22.32;nan;101518.19;4959523;28;20458;-85
2022/04/09 16:27:00;;;;;;;4.53;0.90;;;;;;;22.08;nan;101497.16;4976119;28;20457;-85
2022/04/09 16:29:28;;;;;;;6.47;1.00;;;;;;;22.02;nan;101508.22;4960092;28;20446;-85
2022/04/09 16:31:56;;;;;;;6.73;1.13;;;;;;;22.01;nan;101497.31;4954320;28;20455;-86
2022/04/09 16:34:24;;;;;;;9.57;1.30;;;;;;;21.96;nan;101498.03;4925480;29;20950;-85
2022/04/09 16:36:53;;;;;;;5.57;1.10;;;;;;;21.85;nan;101493.38;4924698;29;20564;-85
2022/04/09 16:39:23;;;;;;;5.97;1.10;;;;;;;21.70;nan;101470.84;4940747;29;20447;-85
2022/04/09 16:41:53;;;;;;;5.50;1.30;;;;;;;21.82;nan;101498.59;4940170;28;20954;-86
2022/04/09 16:44:25;;;;;;;7.70;1.47;;;;;;;21.67;nan;101488.03;4910139;29;20521;-85
2022/04/09 16:46:55;;;;;;;12.63;1.20;;;;;;;21.51;nan;101488.84;4940103;28;20537;-86
2022/04/09 16:49:23;;;;;;;5.30;1.20;;;;;;;21.42;nan;101481.97;4924812;28;20447;-86
2022/04/09 16:52:01;;;;;;;6.37;1.40;;;;;;;21.51;nan;101488.84;4927518;29;20509;-86
2022/04/09 16:54:30;;;;;;;6.90;1.37;;;;;;;21.55;nan;101478.91;4957353;28;20459;-86
2022/04/09 16:57:00;;;;;;;10.13;1.57;;;;;;;21.63;nan;101498.81;4940127;28;20486;-86
2022/04/09 16:59:29;;;;;;;12.30;1.60;;;;;;;21.51;nan;101484.13;4924106;28;20458;-86
2022/04/09 17:01:58;;;;;;;8.17;1.40;;;;;;;21.58;nan;101492.28;4940213;29;20462;-86
2022/04/09 17:04:26;;;;;;;8.53;1.63;;;;;;;21.52;nan;101476.63;4940440;29;20451;-86
2022/04/09 17:06:55;;;;;;;7.80;1.13;;;;;;;21.50;nan;101492.72;4956670;29;20882;-86
2022/04/09 17:09:22;;;;;;;10.20;1.40;;;;;;;21.41;nan;101496.97;4952011;28;20867;-86
2022/04/09 17:11:52;;;;;;;9.17;1.67;;;;;;;21.34;nan;101492.41;4974553;28;20458;-86
2022/04/09 17:14:20;;;;;;;6.17;1.60;;;;;;;21.20;nan;101510.44;4959533;28;20454;-85
2022/04/09 17:16:49;;;;;;;6.80;1.20;;;;;;;21.02;nan;101493.91;4959097;28;20650;-85
2022/04/09 17:19:17;;;;;;;5.63;1.07;;;;;;;20.96;nan;101489.34;4943221;28;20442;-84
2022/04/09 17:21:46;;;;;;;8.77;1.20;;;;;;;20.83;nan;101492.34;4943292;28;20458;-85
2022/04/09 17:24:14;;;;;;;5.50;0.87;;;;;;;20.72;nan;101490.44;4974720;28;20456;-85
2022/04/09 17:26:42;;;;;;;7.80;1.77;;;;;;;20.61;nan;101490.19;4943021;28;20972;-85
2022/04/09 17:29:11;;;;;;;5.73;1.23;;;;;;;20.59;nan;101503.47;4975776;28;20450;-84
2022/04/09 17:31:41;;;;;;;3.97;0.90;;;;;;;20.49;nan;101486.59;4958980;28;20529;-85
